Aérodrome :
LOGIN :

S'inscrire | Disclaimer

   EN    FR    IT 

 










Légende :    VFR   VFR Marginal   IFR   IFR Intensif   IFR Très Intensif
Visi : 
Plafond : 
>= 8 km
>= 3000ft
5 à 8 km
1000 à 3000 ft
1500m à 5 km
500 à 1000 ft
800 à 1500m
200 à 500 ft
< 800m
< 200 ft
Symboles :   Orages  Brouillard  Fortes neiges  Fortes précipitations  Vent > 20 kt
SIGMETs :   Divers  Orages  Givrage  Turbulence  Onde Orograph.  Cendres Volcan.






- Altitude de l'aérodrome : 93 ft
- Code IATA : XRY


LEJR - Jerez

DERNIER METAR :
  • 250030Z AUTO VRB02KT 9000 NSC 08/06 Q1025

METARs EXPIRÉS :
  • 250000Z AUTO 09003KT 060V120 9000 NCD 08/06 Q1025
  • 242330Z AUTO 06004KT 9000 NCD 08/06 Q1025
  • 242300Z AUTO 05003KT 350V070 9000 NCD 08/06 Q1025
  • 242230Z AUTO 09003KT CAVOK 08/05 Q1025
  • 242200Z 12003KT CAVOK 09/05 Q1025

TAF TAF LEJR
Valide du 25 à 00h jusqu'au 26 à 00h UTC


242300Z 2500/2524 27005KT CAVOK TX20/2514Z TN04/2506Z
PROB40
TEMPO 2502/2510 3000 BR
PROB30
TEMPO 2505/2509 0500 FG VV001



MET'MAP, la Météo Aéronautique d'un coup d'oeil ! - Copyright ORBIFLY Décembre 2007 - Disclaimer

ORBIFLY MET'MAP TEAM :

Programmation & Développement : Alexandra Zaïnal
Sur une idée originale de : Baudouin d'Aumeries
Assistance à la programmation : Marc-Olivier Méhu
Soutien technique & logistique : Manuel Goepfert

Contact : metmap@orbifly.com




SOURCES & CREDITS :

   NOAA